Time;durP1;ratioP1;P1;durP2;ratioP2;P2;SDS_P1;SDS_P2;PMS_P1;PMS_P2;Temp;Humidity;BMP_temperature;BMP_pressure;BME280_temperature;BME280_humidity;BME280_pressure;Samples;Min_cycle;Max_cycle;Signal;HPM_P1;HPM_P2
2021/07/29 00:01:37;;;;;;;2.60;2.17;;;;;;;17.59;76.43;100040.31;5049093;28;20286;-80
2021/07/29 00:04:04;;;;;;;3.93;2.20;;;;;;;17.57;76.02;100051.91;5049997;28;20621;-79
2021/07/29 00:06:30;;;;;;;2.30;2.10;;;;;;;17.54;76.41;100044.16;5049438;28;20207;-78
2021/07/29 00:08:58;;;;;;;5.83;2.67;;;;;;;17.51;75.81;100065.44;5049019;28;20206;-79
2021/07/29 00:11:25;;;;;;;2.63;2.43;;;;;;;17.46;76.98;100007.63;5049343;28;20251;-80
2021/07/29 00:13:53;;;;;;;3.03;2.73;;;;;;;17.41;77.49;99997.31;5048045;28;20211;-78
2021/07/29 00:16:21;;;;;;;3.23;2.00;;;;;;;17.33;76.30;100043.53;5049479;28;20203;-78
2021/07/29 00:19:05;;;;;;;2.37;2.20;;;;;;;17.32;75.56;100081.38;5049659;28;20212;-79
2021/07/29 00:21:32;;;;;;;3.40;2.27;;;;;;;17.32;75.68;100069.03;5049620;28;20235;-79
2021/07/29 00:24:00;;;;;;;2.87;2.30;;;;;;;17.25;74.26;100128.34;5047844;28;20203;-79
2021/07/29 00:26:27;;;;;;;3.90;2.13;;;;;;;17.26;75.92;100053.53;5050229;28;20211;-78
2021/07/29 00:28:53;;;;;;;2.90;2.70;;;;;;;17.19;75.30;100074.13;5048514;28;20210;-79
2021/07/29 00:31:19;;;;;;;2.90;2.30;;;;;;;17.19;74.60;100100.50;5049054;28;20227;-78
2021/07/29 00:33:46;;;;;;;4.20;2.20;;;;;;;17.21;75.87;100039.75;5048579;28;20621;-78
2021/07/29 00:36:20;;;;;;;2.43;2.23;;;;;;;17.18;75.85;100043.38;5048959;28;20276;-78
2021/07/29 00:38:46;;;;;;;3.93;2.20;;;;;;;17.11;74.87;100078.94;5049074;28;20244;-77
2021/07/29 00:41:14;;;;;;;2.97;2.10;;;;;;;17.14;74.89;100070.00;5048483;28;20217;-78
2021/07/29 00:43:41;;;;;;;4.93;2.80;;;;;;;17.13;75.50;100048.06;5047522;28;20201;-78
2021/07/29 00:46:07;;;;;;;3.13;2.37;;;;;;;17.16;74.09;100089.25;5047953;28;20460;-78
2021/07/29 00:48:34;;;;;;;3.73;2.60;;;;;;;17.20;74.46;100102.19;5048679;28;20205;-78
2021/07/29 00:51:01;;;;;;;2.83;2.40;;;;;;;17.21;73.92;100095.16;5049466;28;20207;-78
2021/07/29 00:53:27;;;;;;;5.47;2.43;;;;;;;17.22;72.88;100129.38;5047755;28;20253;-80
2021/07/29 00:55:54;;;;;;;4.23;2.27;;;;;;;17.22;74.09;100075.72;5048506;28;20199;-78
2021/07/29 00:58:22;;;;;;;2.33;2.13;;;;;;;17.20;74.08;100081.09;5048611;28;20215;-78
2021/07/29 01:00:49;;;;;;;3.13;2.27;;;;;;;17.20;73.20;100110.09;5048326;28;20264;-78
2021/07/29 01:03:16;;;;;;;2.77;2.20;;;;;;;17.19;72.85;100131.31;5046032;28;20703;-79
2021/07/29 01:05:42;;;;;;;2.60;2.07;;;;;;;17.18;73.15;100117.25;5047255;28;20211;-79
2021/07/29 01:08:10;;;;;;;3.20;2.30;;;;;;;17.16;72.85;100127.03;5047713;28;20287;-79
2021/07/29 01:10:36;;;;;;;2.37;2.17;;;;;;;17.12;71.85;100167.66;5047780;28;20210;-78
2021/07/29 01:13:02;;;;;;;2.80;2.40;;;;;;;17.17;72.30;100152.47;5048079;28;20271;-78
2021/07/29 01:15:30;;;;;;;2.93;2.40;;;;;;;17.17;72.59;100141.94;5047973;28;20236;-78
2021/07/29 01:18:01;;;;;;;4.27;2.40;;;;;;;17.15;72.69;100138.53;5047216;28;20733;-78
2021/07/29 01:20:29;;;;;;;2.23;2.03;;;;;;;17.15;73.12;100108.66;5047854;28;20297;-79
2021/07/29 01:22:55;;;;;;;3.63;2.37;;;;;;;17.13;73.00;100118.44;5046539;28;20225;-78
2021/07/29 01:25:22;;;;;;;2.37;2.17;;;;;;;17.19;74.48;100047.75;5047350;28;20745;-78
2021/07/29 01:27:48;;;;;;;2.73;2.20;;;;;;;17.20;72.49;100133.00;5046879;28;20223;-78
2021/07/29 01:30:15;;;;;;;2.70;2.33;;;;;;;17.18;71.32;100182.34;5047603;28;20653;-79
2021/07/29 01:32:42;;;;;;;3.60;2.40;;;;;;;17.19;72.64;100141.84;5046685;28;20230;-79
2021/07/29 01:35:10;;;;;;;4.50;2.17;;;;;;;17.19;72.59;100118.13;5047950;28;20232;-78
2021/07/29 01:37:39;;;;;;;3.00;2.10;;;;;;;17.20;73.78;100099.56;5048116;28;20229;-78
2021/07/29 01:40:07;;;;;;;2.70;2.50;;;;;;;17.23;72.72;100140.75;5047832;28;20209;-78
2021/07/29 01:42:33;;;;;;;2.80;2.30;;;;;;;17.24;72.95;100139.81;5044595;28;20234;-78
2021/07/29 01:45:00;;;;;;;2.90;2.53;;;;;;;17.30;73.14;100105.19;5046620;28;20263;-78
2021/07/29 01:47:26;;;;;;;2.73;2.40;;;;;;;17.31;71.71;100169.41;5047550;28;20214;-79
2021/07/29 01:49:54;;;;;;;2.63;2.40;;;;;;;17.31;71.89;100204.53;5046823;28;20574;-79
2021/07/29 01:52:20;;;;;;;4.60;2.30;;;;;;;17.26;72.41;100180.16;5046141;28;20241;-78
2021/07/29 01:54:49;;;;;;;3.90;2.40;;;;;;;17.09;73.19;100148.53;5046819;28;20208;-78
2021/07/29 01:57:15;;;;;;;2.80;2.37;;;;;;;16.85;74.40;100118.03;5046533;28;20248;-78
2021/07/29 01:59:41;;;;;;;3.97;2.90;;;;;;;16.90;74.55;100101.97;5045716;28;20264;-78
2021/07/29 02:02:08;;;;;;;3.17;2.30;;;;;;;16.75;74.53;100102.72;5044934;28;20227;-78
2021/07/29 02:04:35;;;;;;;3.57;2.70;;;;;;;16.62;75.91;100060.31;5046216;28;20209;-78
2021/07/29 02:07:01;;;;;;;2.63;2.30;;;;;;;16.66;76.44;100020.53;5047529;28;20199;-79
2021/07/29 02:09:27;;;;;;;2.73;2.50;;;;;;;16.64;76.81;100017.13;5046349;28;20679;-78
2021/07/29 02:11:55;;;;;;;2.77;2.57;;;;;;;16.63;78.11;99969.78;5044762;28;20222;-78
2021/07/29 02:14:23;;;;;;;3.57;2.60;;;;;;;16.71;78.48;99956.19;5046809;28;20214;-78
2021/07/29 02:16:50;;;;;;;2.70;2.30;;;;;;;16.85;79.48;99916.84;5044975;28;21227;-78
2021/07/29 02:19:17;;;;;;;3.13;2.67;;;;;;;16.95;79.18;99933.03;5047035;28;20293;-79
2021/07/29 02:21:44;;;;;;;3.43;3.07;;;;;;;16.90;78.26;99972.78;5046136;28;20257;-79
2021/07/29 02:24:11;;;;;;;3.23;2.77;;;;;;;16.93;79.76;99919.91;5045111;28;20213;-79
2021/07/29 02:26:38;;;;;;;4.30;2.47;;;;;;;16.96;80.48;99889.91;5045404;28;20213;-78
2021/07/29 02:29:06;;;;;;;3.10;2.80;;;;;;;16.68;79.65;99933.50;5046046;28;20207;-78
2021/07/29 02:31:32;;;;;;;2.87;2.40;;;;;;;16.68;80.02;99904.50;5046071;28;20234;-79
2021/07/29 02:33:59;;;;;;;3.53;3.23;;;;;;;16.70;80.16;99913.19;5047193;28;20202;-79
2021/07/29 02:36:25;;;;;;;2.80;2.60;;;;;;;16.67;80.55;99898.41;5048170;28;20252;-79
2021/07/29 02:38:51;;;;;;;3.53;2.93;;;;;;;16.64;80.14;99909.09;5047459;28;20648;-78
2021/07/29 02:41:19;;;;;;;2.87;2.67;;;;;;;16.68;81.12;99878.16;5049189;28;20237;-78
2021/07/29 02:43:45;;;;;;;3.03;2.83;;;;;;;16.56;81.45;99858.59;5049591;28;20231;-78
2021/07/29 02:46:13;;;;;;;2.97;2.60;;;;;;;16.69;81.67;99848.25;5051932;28;20986;-78
2021/07/29 02:48:40;;;;;;;3.53;3.23;;;;;;;16.79;81.80;99832.78;5051890;28;20214;-78
2021/07/29 02:51:06;;;;;;;3.50;3.07;;;;;;;16.86;80.96;99858.75;5051552;28;20272;-78
2021/07/29 02:53:34;;;;;;;4.00;3.30;;;;;;;16.93;81.70;99840.81;5051281;28;20225;-79
2021/07/29 02:56:00;;;;;;;4.47;3.50;;;;;;;16.95;81.58;99833.69;5051007;28;20209;-79
2021/07/29 02:58:27;;;;;;;3.50;3.20;;;;;;;16.96;81.50;99822.19;5052245;28;20278;-78
2021/07/29 03:00:54;;;;;;;2.97;2.77;;;;;;;16.91;81.73;99812.81;5051943;28;20680;-79
2021/07/29 03:03:22;;;;;;;3.30;3.00;;;;;;;16.87;81.46;99804.25;5050679;28;20229;-80
2021/07/29 03:05:48;;;;;;;3.77;2.63;;;;;;;16.91;82.33;99789.97;5049695;28;20228;-80
2021/07/29 03:08:15;;;;;;;3.50;3.10;;;;;;;16.88;81.51;99805.94;5050738;28;20344;-78
2021/07/29 03:10:46;;;;;;;3.20;2.90;;;;;;;16.83;81.73;99824.66;5051724;28;20228;-79
2021/07/29 03:13:12;;;;;;;3.30;3.00;;;;;;;16.84;81.80;99810.53;5051108;28;20245;-79
2021/07/29 03:15:39;;;;;;;4.47;2.97;;;;;;;16.82;82.04;99804.50;5050771;28;20683;-78
2021/07/29 03:18:05;;;;;;;3.13;2.93;;;;;;;16.84;82.09;99801.78;5050642;28;20223;-78
2021/07/29 03:20:33;;;;;;;3.30;3.10;;;;;;;16.82;81.81;99827.38;5050903;28;20202;-78
2021/07/29 03:22:59;;;;;;;2.87;2.67;;;;;;;16.82;81.59;99820.31;5049871;28;20594;-78
2021/07/29 03:25:26;;;;;;;3.87;2.97;;;;;;;16.78;80.91;99844.25;5050341;28;20205;-78
2021/07/29 03:27:52;;;;;;;3.77;3.17;;;;;;;16.78;80.92;99847.75;5050133;28;20213;-78
2021/07/29 03:30:19;;;;;;;3.97;3.07;;;;;;;16.77;80.98;99830.25;5050165;28;20787;-77
2021/07/29 03:32:45;;;;;;;3.30;3.10;;;;;;;16.79;81.42;99815.19;5049072;28;20640;-77
2021/07/29 03:35:11;;;;;;;3.37;2.47;;;;;;;16.75;81.55;99811.03;5050159;28;20209;-77
2021/07/29 03:37:39;;;;;;;3.13;2.83;;;;;;;16.73;80.72;99835.75;5050095;28;20205;-79
2021/07/29 03:40:07;;;;;;;3.00;2.70;;;;;;;16.70;79.41;99896.53;5049064;28;20201;-77
2021/07/29 03:42:34;;;;;;;3.10;2.80;;;;;;;16.69;79.34;99890.41;5049102;28;20233;-78
2021/07/29 03:45:02;;;;;;;2.87;2.50;;;;;;;16.65;79.50;99900.28;5048700;28;20214;-77
2021/07/29 03:47:28;;;;;;;3.03;2.73;;;;;;;16.61;79.50;99904.00;5049868;28;20235;-78
2021/07/29 03:49:55;;;;;;;2.90;2.70;;;;;;;16.59;79.48;99908.50;5050397;28;20206;-78
2021/07/29 03:52:22;;;;;;;4.60;3.40;;;;;;;16.53;79.38;99915.84;5048835;28;20244;-78
2021/07/29 03:54:51;;;;;;;3.03;2.73;;;;;;;16.40;79.83;99898.06;5051253;28;20431;-78
2021/07/29 03:57:19;;;;;;;3.27;2.90;;;;;;;16.57;80.17;99876.13;5050161;28;20210;-78
2021/07/29 03:59:45;;;;;;;3.03;2.80;;;;;;;16.62;80.34;99886.41;5050218;28;20235;-78
2021/07/29 04:02:11;;;;;;;3.20;3.00;;;;;;;16.69;80.72;99861.44;5048982;28;20236;-78
2021/07/29 04:04:39;;;;;;;3.17;2.97;;;;;;;16.63;79.64;99898.63;5049882;28;20205;-77
2021/07/29 04:07:05;;;;;;;3.10;2.90;;;;;;;16.71;80.01;99891.19;5050090;28;20275;-77
2021/07/29 04:09:32;;;;;;;2.90;2.70;;;;;;;16.75;80.20;99869.00;5049491;28;20217;-79
2021/07/29 04:12:00;;;;;;;3.47;3.10;;;;;;;16.73;79.59;99894.59;5048818;28;20244;-79
2021/07/29 04:14:27;;;;;;;3.33;2.93;;;;;;;16.64;79.79;99916.16;5050636;28;20205;-79
2021/07/29 04:16:53;;;;;;;3.30;2.50;;;;;;;16.77;79.33;99924.25;5050583;28;20205;-79
2021/07/29 04:19:20;;;;;;;3.90;3.50;;;;;;;16.71;79.19;99932.50;5049209;28;20220;-78
2021/07/29 04:21:47;;;;;;;3.50;3.20;;;;;;;16.68;79.81;99920.34;5049634;28;20223;-77
2021/07/29 04:24:13;;;;;;;3.63;2.90;;;;;;;16.73;79.63;99930.63;5048902;28;20259;-78
2021/07/29 04:26:40;;;;;;;3.27;2.70;;;;;;;16.78;79.60;99924.19;5049668;28;20213;-77
2021/07/29 04:29:08;;;;;;;3.00;2.70;;;;;;;16.84;80.16;99912.50;5049651;28;20620;-78
2021/07/29 04:31:35;;;;;;;5.27;3.00;;;;;;;16.81;80.05;99917.91;5049948;28;20229;-78
2021/07/29 04:34:01;;;;;;;4.30;2.57;;;;;;;16.86;79.59;99927.28;5048976;28;20255;-78
2021/07/29 04:36:28;;;;;;;3.47;3.17;;;;;;;16.87;79.60;99936.91;5048821;28;20633;-77
2021/07/29 04:38:54;;;;;;;2.87;2.67;;;;;;;16.84;80.71;99886.97;5049932;28;20725;-78
2021/07/29 04:41:20;;;;;;;3.37;2.60;;;;;;;16.85;79.97;99908.94;5048446;28;20234;-77
2021/07/29 04:43:47;;;;;;;3.37;3.07;;;;;;;16.84;80.50;99894.03;5048818;28;20226;-77
2021/07/29 04:46:15;;;;;;;3.00;2.80;;;;;;;16.88;79.24;99930.69;5049618;28;20243;-78
2021/07/29 04:48:41;;;;;;;3.13;2.83;;;;;;;16.87;79.63;99938.72;5048212;28;20633;-78
2021/07/29 04:51:07;;;;;;;2.97;2.77;;;;;;;16.78;79.78;99920.69;5049134;28;20263;-77
2021/07/29 04:53:34;;;;;;;2.90;2.70;;;;;;;16.80;79.73;99919.69;5047354;28;20209;-77
2021/07/29 04:56:03;;;;;;;3.00;2.80;;;;;;;16.84;79.38;99936.22;5048868;28;20656;-77
2021/07/29 04:58:29;;;;;;;3.40;2.60;;;;;;;16.72;79.46;99935.03;5048301;28;20206;-78
2021/07/29 05:00:56;;;;;;;2.90;2.70;;;;;;;16.67;78.52;99966.94;5048264;28;20214;-79
2021/07/29 05:03:25;;;;;;;2.70;2.50;;;;;;;16.70;78.90;99942.19;5046648;28;20318;-79
2021/07/29 05:05:52;;;;;;;3.00;2.30;;;;;;;16.59;77.73;99981.41;5049204;28;20213;-78
2021/07/29 05:08:18;;;;;;;2.67;2.30;;;;;;;16.60;78.08;99977.84;5049034;28;20263;-79
2021/07/29 05:10:44;;;;;;;4.17;2.40;;;;;;;16.70;78.08;99979.09;5048785;28;20214;-78
2021/07/29 05:13:11;;;;;;;2.43;2.23;;;;;;;16.75;78.01;99973.56;5048217;28;20227;-78
2021/07/29 05:15:37;;;;;;;2.70;2.00;;;;;;;16.82;77.50;99998.72;5046820;28;20205;-77
2021/07/29 05:18:04;;;;;;;2.10;2.00;;;;;;;16.84;78.10;99976.59;5046669;28;20687;-77
2021/07/29 05:20:32;;;;;;;2.67;2.30;;;;;;;16.83;75.93;100050.53;5048342;28;20211;-78
2021/07/29 05:22:58;;;;;;;1.73;1.60;;;;;;;16.81;75.33;100066.41;5046840;28;20748;-78
2021/07/29 05:25:24;;;;;;;2.50;2.30;;;;;;;16.72;75.41;100087.06;5047715;28;20273;-78
2021/07/29 05:27:52;;;;;;;2.97;2.27;;;;;;;16.68;74.66;100094.28;5046639;28;20260;-78
2021/07/29 05:30:20;;;;;;;1.97;1.87;;;;;;;16.59;75.40;100081.53;5047751;28;20218;-77
2021/07/29 05:32:47;;;;;;;2.20;2.03;;;;;;;16.59;74.91;100097.34;5045030;28;20230;-77
2021/07/29 05:35:13;;;;;;;3.00;2.10;;;;;;;16.64;75.47;100074.28;5046931;28;20287;-78
2021/07/29 05:37:41;;;;;;;1.83;1.73;;;;;;;16.73;75.94;100052.72;5047306;28;20259;-77
2021/07/29 05:40:08;;;;;;;2.03;1.63;;;;;;;16.82;75.99;100057.56;5045895;28;20231;-77
2021/07/29 05:42:35;;;;;;;2.23;1.87;;;;;;;16.81;73.82;100113.84;5045623;28;20661;-77
2021/07/29 05:45:03;;;;;;;2.23;2.03;;;;;;;16.78;74.39;100115.75;5046816;28;20205;-79
2021/07/29 05:47:29;;;;;;;2.23;1.80;;;;;;;16.93;75.98;100058.81;5046974;28;20202;-78
2021/07/29 05:49:56;;;;;;;3.70;2.30;;;;;;;16.98;74.55;100077.88;5046537;28;20197;-79
2021/07/29 05:52:22;;;;;;;2.07;1.87;;;;;;;16.85;73.39;100156.75;5044670;28;20238;-77
2021/07/29 05:54:50;;;;;;;3.07;1.80;;;;;;;16.95;73.39;100160.63;5045790;28;20198;-78
2021/07/29 05:57:16;;;;;;;2.90;1.90;;;;;;;16.83;73.09;100159.44;5042852;28;20258;-77
2021/07/29 05:59:43;;;;;;;1.80;1.70;;;;;;;16.98;74.03;100134.09;5041970;28;20259;-77
2021/07/29 06:02:09;;;;;;;2.20;2.03;;;;;;;17.00;73.13;100158.59;5045100;28;20233;-78
2021/07/29 06:04:35;;;;;;;1.43;1.33;;;;;;;17.05;73.62;100153.94;5043501;28;20245;-77
2021/07/29 06:07:02;;;;;;;1.93;1.83;;;;;;;16.83;72.55;100191.09;5045112;28;20244;-78
2021/07/29 06:09:28;;;;;;;2.20;1.77;;;;;;;16.89;74.13;100131.94;5044722;28;20205;-78
2021/07/29 06:11:57;;;;;;;2.10;1.63;;;;;;;16.75;72.38;100202.88;5045458;28;20267;-80
2021/07/29 06:14:23;;;;;;;1.80;1.70;;;;;;;16.79;73.35;100151.75;5046507;28;20208;-79
2021/07/29 06:16:50;;;;;;;3.30;1.70;;;;;;;16.73;73.08;100176.63;5049177;28;20205;-78
2021/07/29 06:19:18;;;;;;;2.07;1.77;;;;;;;16.72;72.96;100176.69;5048748;28;20202;-78
2021/07/29 06:21:45;;;;;;;2.10;1.73;;;;;;;16.61;74.14;100143.81;5047701;28;20712;-78
2021/07/29 06:24:12;;;;;;;2.10;1.50;;;;;;;16.67;73.95;100155.84;5050513;28;20324;-79
2021/07/29 06:26:38;;;;;;;2.60;1.73;;;;;;;16.75;73.39;100163.34;5051417;28;20202;-80
2021/07/29 06:29:07;;;;;;;1.83;1.67;;;;;;;16.88;73.52;100159.22;5051019;28;20217;-78
2021/07/29 06:31:34;;;;;;;2.93;1.70;;;;;;;16.98;72.70;100186.81;5050146;28;20768;-80
2021/07/29 06:34:01;;;;;;;1.70;1.60;;;;;;;17.12;73.13;100172.94;5048696;28;20316;-79
2021/07/29 06:36:28;;;;;;;2.83;1.70;;;;;;;17.14;73.63;100163.16;5050023;28;20209;-79
2021/07/29 06:38:54;;;;;;;4.40;1.73;;;;;;;17.22;72.79;100189.16;5050498;28;20255;-78
2021/07/29 06:41:20;;;;;;;2.33;1.93;;;;;;;17.30;72.27;100202.81;5049357;28;20245;-79
2021/07/29 06:43:47;;;;;;;2.00;1.57;;;;;;;17.18;70.77;100272.03;5049527;28;20229;-80
2021/07/29 06:46:14;;;;;;;4.43;1.90;;;;;;;17.21;71.76;100232.31;5050056;28;20217;-79
2021/07/29 06:48:41;;;;;;;3.13;1.87;;;;;;;17.25;71.57;100249.69;5049893;28;20240;-79
2021/07/29 06:51:09;;;;;;;3.60;2.07;;;;;;;17.16;72.92;100226.41;5049167;28;20267;-78
2021/07/29 06:53:37;;;;;;;3.40;1.90;;;;;;;17.04;72.09;100233.97;5047999;28;20263;-78
2021/07/29 06:56:04;;;;;;;2.10;1.90;;;;;;;17.09;73.00;100217.09;5049648;28;20225;-80
2021/07/29 06:58:31;;;;;;;2.57;1.73;;;;;;;17.21;72.63;100217.34;5049296;28;20205;-77
2021/07/29 07:01:01;;;;;;;2.07;1.63;;;;;;;17.18;71.30;100266.75;5048846;28;20206;-79
2021/07/29 07:03:29;;;;;;;3.43;2.00;;;;;;;17.15;71.11;100277.47;5048741;28;20229;-79
2021/07/29 07:06:00;;;;;;;1.63;1.53;;;;;;;17.12;71.00;100270.53;5050162;28;20619;-78
2021/07/29 07:08:26;;;;;;;2.57;1.60;;;;;;;17.16;70.52;100290.56;5050161;28;20641;-78
2021/07/29 07:10:52;;;;;;;3.00;1.70;;;;;;;17.24;72.30;100216.31;5050335;28;20213;-78
2021/07/29 07:13:19;;;;;;;4.00;1.83;;;;;;;17.38;72.13;100240.25;5048478;28;20226;-79
2021/07/29 07:15:45;;;;;;;2.93;1.73;;;;;;;17.51;71.37;100266.00;5050047;28;20214;-80
2021/07/29 07:18:12;;;;;;;2.00;1.53;;;;;;;17.60;69.70;100335.03;5050391;28;20211;-78
2021/07/29 07:20:39;;;;;;;1.40;1.30;;;;;;;17.68;70.08;100334.66;5049579;28;20214;-81
2021/07/29 07:23:06;;;;;;;2.83;1.50;;;;;;;17.66;68.34;100390.16;5046831;28;20226;-79
2021/07/29 07:25:36;;;;;;;3.90;1.70;;;;;;;17.70;68.02;100377.66;5048818;28;20279;-80
2021/07/29 07:28:03;;;;;;;2.47;1.60;;;;;;;17.81;67.53;100409.66;5048567;28;20287;-79
2021/07/29 07:30:31;;;;;;;2.60;1.60;;;;;;;17.75;65.20;100483.03;5048509;28;20210;-79
2021/07/29 07:32:58;;;;;;;2.70;1.70;;;;;;;17.78;66.29;100459.97;5046627;28;20287;-78
2021/07/29 07:35:24;;;;;;;4.43;1.90;;;;;;;17.90;67.28;100416.31;5049157;28;20263;-78
2021/07/29 07:37:54;;;;;;;1.87;1.47;;;;;;;17.72;65.40;100488.44;5048540;28;20210;-79
2021/07/29 07:40:20;;;;;;;2.37;1.53;;;;;;;17.76;65.27;100500.56;5048521;28;20243;-79
2021/07/29 07:42:48;;;;;;;2.20;1.23;;;;;;;17.90;64.33;100532.50;5047883;28;20229;-79
2021/07/29 07:45:14;;;;;;;3.90;1.70;;;;;;;17.93;64.89;100521.78;5048916;28;20750;-79
2021/07/29 07:47:40;;;;;;;2.77;1.50;;;;;;;17.80;63.49;100563.75;5049687;28;20664;-78
2021/07/29 07:50:07;;;;;;;2.17;1.70;;;;;;;17.75;63.71;100557.81;5048810;28;20203;-77
2021/07/29 07:52:34;;;;;;;2.57;1.50;;;;;;;17.79;64.63;100517.13;5048545;28;20229;-79
2021/07/29 07:55:02;;;;;;;2.47;1.50;;;;;;;17.76;64.96;100512.00;5048220;28;20215;-79
2021/07/29 07:57:28;;;;;;;3.20;1.77;;;;;;;17.85;65.50;100487.81;5047998;28;20206;-79
2021/07/29 07:59:58;;;;;;;4.43;2.10;;;;;;;17.73;64.27;100522.72;5049477;28;20616;-79
2021/07/29 08:02:24;;;;;;;4.00;1.93;;;;;;;17.84;64.33;100516.97;5047234;28;20252;-78
2021/07/29 08:04:51;;;;;;;2.73;1.80;;;;;;;17.87;64.49;100506.22;5047542;28;21254;-79
2021/07/29 08:07:17;;;;;;;4.80;1.60;;;;;;;17.90;62.46;100563.31;5046842;28;20217;-79
2021/07/29 08:09:44;;;;;;;2.10;1.50;;;;;;;17.88;60.81;100673.47;5048154;28;20208;-79
2021/07/29 08:12:12;;;;;;;2.50;1.60;;;;;;;17.95;60.35;100680.19;5047202;28;20229;-79
2021/07/29 08:14:38;;;;;;;2.40;2.20;;;;;;;17.97;61.29;100651.91;5048229;28;20753;-78
2021/07/29 08:17:06;;;;;;;3.93;1.70;;;;;;;17.93;61.26;100645.06;5047547;28;20210;-79
2021/07/29 08:19:33;;;;;;;1.83;1.73;;;;;;;17.81;60.75;100657.00;5048094;28;20233;-79
2021/07/29 08:21:59;;;;;;;1.83;1.70;;;;;;;17.88;61.62;100639.13;5047132;28;20229;-79
2021/07/29 08:24:25;;;;;;;3.40;2.10;;;;;;;17.86;61.38;100636.59;5048208;28;20641;-79
2021/07/29 08:26:52;;;;;;;2.17;1.70;;;;;;;17.81;61.18;100655.22;5048197;28;20197;-79
2021/07/29 08:29:20;;;;;;;2.47;2.00;;;;;;;17.97;61.62;100630.78;5047684;28;20213;-78
2021/07/29 08:31:46;;;;;;;3.37;2.03;;;;;;;18.12;62.07;100594.88;5047062;28;20217;-79
2021/07/29 08:34:12;;;;;;;2.93;1.97;;;;;;;18.18;60.74;100664.13;5047962;28;20268;-80
2021/07/29 08:36:39;;;;;;;2.43;1.80;;;;;;;18.25;61.15;100649.72;5047842;28;20229;-79
2021/07/29 08:39:05;;;;;;;2.73;1.73;;;;;;;18.16;60.90;100662.50;5047654;28;20659;-78
2021/07/29 08:41:32;;;;;;;2.13;1.70;;;;;;;18.09;61.39;100653.97;5046673;28;20234;-77
2021/07/29 08:43:58;;;;;;;2.03;1.93;;;;;;;18.13;62.04;100612.44;5046992;28;20230;-80
2021/07/29 08:46:26;;;;;;;2.80;1.67;;;;;;;18.02;61.79;100631.44;5047508;28;20214;-79
2021/07/29 08:48:53;;;;;;;2.33;1.70;;;;;;;18.22;59.55;100705.34;5047265;28;20220;-77
2021/07/29 08:51:22;;;;;;;1.80;1.03;;;;;;;18.30;57.17;100837.13;5047651;28;20306;-79
2021/07/29 08:53:49;;;;;;;1.60;1.50;;;;;;;18.55;57.04;100854.50;5046598;28;20207;-79
2021/07/29 08:56:17;;;;;;;1.50;1.37;;;;;;;18.64;56.02;100894.59;5047212;28;20289;-77
2021/07/29 08:58:44;;;;;;;3.67;1.43;;;;;;;18.70;56.86;100847.66;5046772;28;20696;-78
2021/07/29 09:01:12;;;;;;;2.53;1.40;;;;;;;18.85;55.77;100894.59;5047052;28;20214;-79
2021/07/29 09:03:41;;;;;;;3.40;1.30;;;;;;;18.95;56.57;100869.44;5046877;28;20249;-78
2021/07/29 09:06:09;;;;;;;2.17;1.30;;;;;;;18.98;54.97;100931.91;5046930;28;20205;-77
2021/07/29 09:08:50;;;;;;;2.03;1.17;;;;;;;19.11;55.31;100925.13;5047808;28;20215;-79
2021/07/29 09:11:27;;;;;;;1.43;1.17;;;;;;;19.08;53.29;101004.66;5047230;28;20254;-77
2021/07/29 09:14:02;;;;;;;2.27;1.30;;;;;;;19.21;53.71;100952.03;5045232;28;20205;-79
2021/07/29 09:16:28;;;;;;;4.07;1.37;;;;;;;19.10;53.51;100984.28;5046811;28;20209;-78
2021/07/29 09:18:56;;;;;;;1.47;1.37;;;;;;;19.10;52.40;101020.47;5046565;28;20208;-78
2021/07/29 09:21:23;;;;;;;2.27;1.33;;;;;;;19.00;53.32;101018.22;5045876;28;20278;-78
2021/07/29 09:24:04;;;;;;;1.27;1.17;;;;;;;19.00;55.18;100920.31;5045665;28;20315;-77
2021/07/29 09:26:48;;;;;;;2.57;1.20;;;;;;;18.79;53.31;100993.59;5046880;28;20211;-79
2021/07/29 09:29:21;;;;;;;2.50;1.40;;;;;;;18.71;54.39;100926.94;5046082;28;20210;-77
2021/07/29 09:31:48;;;;;;;4.73;1.60;;;;;;;18.90;54.19;100960.50;5046740;28;20232;-79
2021/07/29 09:34:16;;;;;;;1.40;1.30;;;;;;;19.07;52.80;100978.25;5044456;28;20214;-78
2021/07/29 09:36:42;;;;;;;3.67;1.53;;;;;;;19.27;53.06;100977.34;5046454;28;20220;-77
2021/07/29 09:39:19;;;;;;;2.33;1.47;;;;;;;19.51;52.26;101015.06;5045552;28;20213;-78
2021/07/29 09:41:47;;;;;;;1.43;1.00;;;;;;;19.47;51.61;101048.75;5045190;28;20589;-78
2021/07/29 09:44:15;;;;;;;1.37;0.90;;;;;;;19.21;51.18;101076.44;5044787;28;20283;-79
2021/07/29 09:46:41;;;;;;;3.43;1.37;;;;;;;19.19;51.91;101043.88;5046240;28;20234;-77
2021/07/29 09:49:08;;;;;;;2.07;1.27;;;;;;;19.15;52.22;101029.06;5046173;28;20201;-77
2021/07/29 09:51:40;;;;;;;2.20;1.10;;;;;;;19.23;50.76;101091.31;5046230;28;20234;-77
2021/07/29 09:54:08;;;;;;;2.37;1.10;;;;;;;19.33;52.36;101022.94;5044325;28;20235;-80
2021/07/29 09:56:34;;;;;;;1.73;1.33;;;;;;;19.30;51.18;101091.88;5046370;28;20274;-78
2021/07/29 09:59:01;;;;;;;2.10;1.20;;;;;;;19.16;50.97;101108.38;5046077;28;20212;-77
2021/07/29 10:01:29;;;;;;;1.97;1.07;;;;;;;19.24;51.03;101097.44;5045593;28;20230;-78
2021/07/29 10:03:57;;;;;;;2.80;0.97;;;;;;;19.36;51.01;101080.16;5045459;28;20245;-81
2021/07/29 10:06:26;;;;;;;1.70;0.93;;;;;;;19.50;50.46;101116.59;5045448;28;20225;-78
2021/07/29 10:08:57;;;;;;;3.37;1.20;;;;;;;19.45;49.82;101149.44;5045293;28;20242;-77
2021/07/29 10:11:28;;;;;;;4.37;1.27;;;;;;;19.53;48.33;101215.31;5043745;28;20400;-78
2021/07/29 10:13:55;;;;;;;4.30;1.10;;;;;;;19.56;49.11;101178.13;5045120;28;20299;-78
2021/07/29 10:16:45;;;;;;;1.53;1.00;;;;;;;19.45;50.11;101108.88;5045427;28;20206;-78
2021/07/29 10:19:12;;;;;;;4.10;1.23;;;;;;;19.32;51.04;101091.81;5045601;28;20216;-79
2021/07/29 10:21:40;;;;;;;1.47;0.97;;;;;;;19.41;50.04;101131.13;5046735;28;20220;-77
2021/07/29 10:24:10;;;;;;;3.67;1.00;;;;;;;19.64;48.94;101191.00;5046369;28;20299;-77
2021/07/29 10:27:07;;;;;;;1.20;0.80;;;;;;;20.02;49.35;101160.13;5046946;28;20206;-77
2021/07/29 10:29:34;;;;;;;2.90;1.13;;;;;;;20.26;47.41;101267.72;5045488;28;20212;-77
2021/07/29 10:32:05;;;;;;;1.83;0.90;;;;;;;20.38;48.05;101228.25;5045856;28;20230;-77
2021/07/29 10:34:33;;;;;;;2.03;1.10;;;;;;;20.49;47.60;101245.44;5044724;28;20201;-79
2021/07/29 10:37:01;;;;;;;2.47;1.00;;;;;;;20.42;46.56;101296.13;5046546;28;20258;-79
2021/07/29 10:39:30;;;;;;;3.17;1.20;;;;;;;20.39;46.22;101313.97;5046924;28;20235;-80
2021/07/29 10:41:57;;;;;;;3.00;1.10;;;;;;;20.32;46.98;101283.38;5045211;28;20231;-79
2021/07/29 10:44:50;;;;;;;1.23;0.80;;;;;;;20.51;46.61;101273.59;5047209;28;20205;-81
2021/07/29 10:47:36;;;;;;;1.37;0.80;;;;;;;20.51;45.50;101355.84;5029971;28;20262;-80
2021/07/29 10:50:16;;;;;;;3.97;1.20;;;;;;;20.65;46.83;101278.28;5045079;28;20744;-81
2021/07/29 10:52:47;;;;;;;1.93;0.90;;;;;;;20.72;46.61;101260.31;5038958;28;20319;-80
2021/07/29 10:55:15;;;;;;;1.47;0.90;;;;;;;20.56;45.53;101343.25;5044080;28;20201;-83
2021/07/29 10:57:58;;;;;;;3.63;1.13;;;;;;;20.61;46.19;101293.53;5045236;28;20236;-84
2021/07/29 11:00:25;;;;;;;2.07;1.00;;;;;;;20.66;46.79;101285.34;5046635;28;20212;-82
2021/07/29 11:02:52;;;;;;;5.23;1.07;;;;;;;20.76;46.42;101305.19;5047899;28;20313;-83
2021/07/29 11:05:26;;;;;;;2.43;0.90;;;;;;;20.90;44.42;101341.69;5048874;28;20251;-83
2021/07/29 11:07:53;;;;;;;3.27;1.23;;;;;;;20.87;43.31;101405.53;5049049;28;20235;-81
2021/07/29 11:10:24;;;;;;;2.37;1.07;;;;;;;20.94;42.75;101448.56;5049447;28;20204;-82
2021/07/29 11:12:51;;;;;;;1.63;0.73;;;;;;;20.97;41.48;101496.19;5049395;28;20320;-78
2021/07/29 11:15:18;;;;;;;1.00;0.67;;;;;;;20.86;40.70;101589.59;5052149;28;20251;-77
2021/07/29 11:17:44;;;;;;;1.67;0.80;;;;;;;20.98;40.42;101582.88;5051846;28;20210;-78
2021/07/29 11:20:11;;;;;;;1.60;1.03;;;;;;;21.06;41.43;101516.16;5053837;28;20269;-79
2021/07/29 11:22:46;;;;;;;3.87;1.20;;;;;;;21.17;42.85;101443.06;5052160;28;20232;-78
2021/07/29 11:25:13;;;;;;;1.40;0.87;;;;;;;21.06;42.94;101423.25;5051945;28;20228;-77
2021/07/29 11:27:41;;;;;;;1.47;0.80;;;;;;;21.21;41.67;101452.59;5052191;28;20215;-79
2021/07/29 11:30:09;;;;;;;2.20;1.07;;;;;;;21.05;41.64;101506.47;5050748;28;20623;-79